Time;durP1;ratioP1;P1;durP2;ratioP2;P2;SDS_P1;SDS_P2;PMS_P1;PMS_P2;Temp;Humidity;BMP_temperature;BMP_pressure;BME280_temperature;BME280_humidity;BME280_pressure;Samples;Min_cycle;Max_cycle;Signal;HPM_P1;HPM_P2
2022/04/07 00:03:52;;;;;;;4.43;2.65;;;;;;;9.82;88.42;98198.00;12186471;19;20011;-80
2022/04/07 00:07:54;;;;;;;6.55;2.55;;;;;;;9.82;88.17;98192.50;12212694;19;20022;-80
2022/04/07 00:11:55;;;;;;;6.45;2.95;;;;;;;9.77;88.47;98178.78;12203757;19;20504;-79
2022/04/07 00:15:59;;;;;;;6.05;3.22;;;;;;;9.70;88.93;98159.84;12182948;19;20103;-80
2022/04/07 00:20:01;;;;;;;4.68;2.22;;;;;;;9.70;89.06;98153.53;12211452;19;20395;-82
2022/04/07 00:24:03;;;;;;;5.35;2.30;;;;;;;9.73;88.86;98140.00;12210166;19;20017;-81
2022/04/07 00:28:05;;;;;;;5.03;2.60;;;;;;;9.70;89.41;98132.34;12187292;19;20018;-80
2022/04/07 00:32:08;;;;;;;3.93;2.37;;;;;;;9.64;90.00;98111.47;12202774;19;20034;-80
2022/04/07 00:36:09;;;;;;;5.85;2.67;;;;;;;9.61;90.54;98127.69;12195450;19;20031;-81
2022/04/07 00:40:12;;;;;;;7.25;2.60;;;;;;;9.64;90.72;98136.22;12185018;19;20062;-79
2022/04/07 00:44:14;;;;;;;5.53;2.30;;;;;;;9.67;90.24;98110.91;12208040;19;20014;-82
2022/04/07 00:48:17;;;;;;;4.82;2.58;;;;;;;9.73;90.04;98111.69;12205052;19;20009;-79
2022/04/07 00:52:19;;;;;;;7.05;2.47;;;;;;;9.70;90.19;98095.75;12185317;19;20002;-80
2022/04/07 00:56:21;;;;;;;3.90;1.98;;;;;;;9.64;90.96;98088.63;12205079;19;20007;-82
2022/04/07 01:00:23;;;;;;;4.00;2.00;;;;;;;9.73;90.22;98086.94;12204396;19;20070;-80
2022/04/07 01:04:25;;;;;;;4.38;2.10;;;;;;;9.75;90.03;98084.69;12184907;19;20400;-78
2022/04/07 01:08:27;;;;;;;5.03;2.53;;;;;;;9.75;89.92;98076.44;12202019;19;20007;-80
2022/04/07 01:12:29;;;;;;;6.47;2.15;;;;;;;9.69;90.25;98064.66;12202011;19;20377;-80
2022/04/07 01:16:30;;;;;;;3.42;2.00;;;;;;;9.62;90.42;98052.38;12179310;19;20010;-80
2022/04/07 01:20:33;;;;;;;4.65;1.80;;;;;;;9.64;90.47;98048.22;12206163;19;20074;-80
2022/04/07 01:24:34;;;;;;;3.33;1.50;;;;;;;9.73;90.12;98037.44;12207973;19;20031;-78
2022/04/07 01:28:36;;;;;;;3.47;2.20;;;;;;;9.71;89.95;98039.63;12183835;19;20010;-80
2022/04/07 01:32:56;;;;;;;3.15;1.80;;;;;;;9.66;90.05;98031.41;12200495;19;20089;-79
2022/04/07 01:36:58;;;;;;;3.13;1.85;;;;;;;9.69;90.22;98025.34;12177648;19;20607;-79
2022/04/07 01:41:00;;;;;;;3.60;2.65;;;;;;;9.66;90.13;98026.75;12208061;19;20469;-80
2022/04/07 01:45:04;;;;;;;4.82;2.38;;;;;;;9.67;90.19;98022.91;12202253;19;20022;-77
2022/04/07 01:49:07;;;;;;;4.47;1.90;;;;;;;9.72;89.76;98024.78;12185072;19;20023;-80
2022/04/07 01:53:09;;;;;;;7.18;2.40;;;;;;;9.73;89.84;98012.69;12196781;19;20010;-80
2022/04/07 01:57:11;;;;;;;5.75;2.42;;;;;;;9.70;89.80;98005.81;12195653;19;20014;-79
2022/04/07 02:01:14;;;;;;;4.53;1.80;;;;;;;9.70;89.99;98005.00;12175699;19;20014;-81
2022/04/07 02:05:16;;;;;;;3.88;2.67;;;;;;;9.73;89.74;98002.50;12200802;19;20006;-80
2022/04/07 02:09:23;;;;;;;4.10;1.83;;;;;;;9.74;89.62;97998.63;12200697;19;20352;-80
2022/04/07 02:13:25;;;;;;;5.38;2.08;;;;;;;9.71;90.45;97988.19;12178484;19;20090;-80
2022/04/07 02:17:27;;;;;;;5.35;2.30;;;;;;;9.73;90.73;97982.44;12192019;19;20007;-78
2022/04/07 02:21:28;;;;;;;4.97;2.30;;;;;;;9.63;91.80;97961.31;12205797;19;20018;-79
2022/04/07 02:25:30;;;;;;;2.60;1.52;;;;;;;9.57;92.57;97955.03;12181866;19;20010;-82
2022/04/07 02:29:32;;;;;;;3.97;1.77;;;;;;;9.51;93.04;97955.38;12202301;19;20020;-82
2022/04/07 02:33:36;;;;;;;4.75;1.77;;;;;;;9.56;92.18;97952.59;12199402;19;20397;-80
2022/04/07 02:37:38;;;;;;;3.50;1.63;;;;;;;9.57;91.84;97955.03;12182106;19;20504;-79
2022/04/07 02:41:39;;;;;;;2.95;1.42;;;;;;;9.62;91.22;97947.88;12197784;19;20023;-80
2022/04/07 02:45:41;;;;;;;2.42;1.45;;;;;;;9.69;90.46;97951.91;12203275;19;20018;-82
2022/04/07 02:49:43;;;;;;;1.90;1.17;;;;;;;9.66;90.67;97935.97;12192475;19;20098;-80
2022/04/07 02:53:44;;;;;;;1.90;1.10;;;;;;;9.66;90.79;97937.91;12195151;19;20524;-83
2022/04/07 02:57:46;;;;;;;1.90;0.88;;;;;;;9.71;90.76;97929.63;12203413;19;20010;-81
2022/04/07 03:01:51;;;;;;;1.95;0.93;;;;;;;9.70;91.37;97931.56;12176761;19;20010;-82
2022/04/07 03:05:53;;;;;;;4.10;1.10;;;;;;;9.62;94.30;97932.19;12199590;19;20006;-80
2022/04/07 03:09:54;;;;;;;2.78;1.33;;;;;;;9.52;96.18;97930.34;12185046;19;20317;-81
2022/04/07 03:13:56;;;;;;;2.45;1.02;;;;;;;9.43;97.10;97926.59;12196442;19;20047;-81
2022/04/07 03:17:57;;;;;;;3.10;1.05;;;;;;;9.33;98.44;97918.41;12193840;19;20066;-81
2022/04/07 03:21:59;;;;;;;1.58;1.00;;;;;;;9.27;99.50;97919.56;12181365;19;20016;-79
2022/04/07 03:26:02;;;;;;;3.63;1.33;;;;;;;9.25;100.00;97914.38;12210566;19;20030;-82
2022/04/07 03:30:04;;;;;;;2.50;1.35;;;;;;;9.21;100.00;97906.97;12213989;19;20031;-81
2022/04/07 03:34:05;;;;;;;1.02;0.70;;;;;;;9.24;100.00;97911.91;12189227;19;20367;-80
2022/04/07 03:38:08;;;;;;;3.05;1.30;;;;;;;9.27;100.00;97897.56;12210432;19;20021;-82
2022/04/07 03:42:09;;;;;;;1.60;1.00;;;;;;;9.27;100.00;97906.63;12215668;19;20436;-81
2022/04/07 03:46:11;;;;;;;2.25;1.00;;;;;;;9.28;100.00;97893.72;12190515;19;20472;-81
2022/04/07 03:50:13;;;;;;;2.47;0.95;;;;;;;9.32;100.00;97892.03;12211810;19;20078;-80
2022/04/07 03:54:17;;;;;;;1.92;0.90;;;;;;;9.34;99.66;97882.41;12209516;19;20014;-81
2022/04/07 03:58:19;;;;;;;1.63;0.80;;;;;;;9.36;99.56;97871.91;12185256;19;20014;-79
2022/04/07 04:02:20;;;;;;;2.72;0.90;;;;;;;9.40;99.13;97872.19;12208164;19;20023;-81
2022/04/07 04:06:29;;;;;;;1.65;0.70;;;;;;;9.42;98.85;97867.19;12212374;19;20102;-80
2022/04/07 04:10:31;;;;;;;2.13;1.15;;;;;;;9.45;98.40;97874.06;12189355;19;20484;-80
2022/04/07 04:14:32;;;;;;;1.50;1.00;;;;;;;9.46;98.15;97875.69;12206343;19;20073;-79
2022/04/07 04:18:34;;;;;;;2.33;0.90;;;;;;;9.44;98.23;97867.75;12205268;19;20579;-81
2022/04/07 04:22:37;;;;;;;2.30;1.17;;;;;;;9.47;97.50;97860.84;12187969;19;20503;-79
2022/04/07 04:26:38;;;;;;;1.33;0.87;;;;;;;9.50;96.96;97843.78;12208863;19;20015;-79
2022/04/07 04:30:41;;;;;;;1.98;0.80;;;;;;;9.58;96.00;97837.63;12207044;19;20271;-80
2022/04/07 04:34:42;;;;;;;2.70;1.20;;;;;;;9.62;95.46;97848.88;12177254;19;20070;-80
2022/04/07 04:38:44;;;;;;;1.85;1.10;;;;;;;9.59;95.00;97836.53;12208074;19;20006;-81
2022/04/07 04:42:46;;;;;;;3.30;1.20;;;;;;;9.65;94.24;97832.59;12207811;19;20364;-81
2022/04/07 04:46:47;;;;;;;1.45;0.95;;;;;;;9.63;93.91;97834.81;12184656;19;20010;-81
2022/04/07 04:50:49;;;;;;;1.90;0.90;;;;;;;9.62;94.00;97826.88;12209195;19;20093;-81
2022/04/07 04:54:51;;;;;;;1.42;0.88;;;;;;;9.71;93.33;97822.38;12184393;19;20117;-79
2022/04/07 04:58:54;;;;;;;2.37;1.10;;;;;;;9.74;93.45;97835.53;12204117;19;20031;-78
2022/04/07 05:02:55;;;;;;;1.35;0.80;;;;;;;9.73;94.55;97822.91;12204726;19;20051;-79
2022/04/07 05:06:58;;;;;;;1.17;0.80;;;;;;;9.66;95.93;97814.16;12181440;19;20014;-81
2022/04/07 05:10:59;;;;;;;2.55;0.82;;;;;;;9.68;95.70;97817.44;12204965;19;20411;-81
2022/04/07 05:15:03;;;;;;;3.17;0.90;;;;;;;9.72;95.54;97802.00;12200908;19;20003;-80
2022/04/07 05:19:04;;;;;;;1.60;0.88;;;;;;;9.74;94.40;97797.03;12187294;19;20447;-78
2022/04/07 05:23:06;;;;;;;1.30;0.73;;;;;;;9.82;93.94;97780.69;12207154;19;20658;-80
2022/04/07 05:27:08;;;;;;;0.88;0.60;;;;;;;9.89;93.44;97802.34;12214523;19;20007;-78
2022/04/07 05:31:10;;;;;;;0.70;0.60;;;;;;;9.93;93.58;97788.81;12182806;19;20960;-81
2022/04/07 05:35:13;;;;;;;1.65;1.00;;;;;;;9.89;95.08;97790.50;12207464;19;20007;-77
2022/04/07 05:39:14;;;;;;;3.75;1.20;;;;;;;9.65;100.00;97791.34;12207621;19;20027;-83
2022/04/07 05:43:19;;;;;;;3.97;1.17;;;;;;;9.49;100.00;97782.47;12185348;19;20010;-82
2022/04/07 05:47:21;;;;;;;2.05;1.05;;;;;;;9.32;100.00;97787.59;12206870;19;20006;-81
2022/04/07 05:51:27;;;;;;;4.45;1.30;;;;;;;9.39;100.00;97766.06;12210027;19;20349;-82
2022/04/07 05:55:29;;;;;;;2.75;1.45;;;;;;;9.34;100.00;97763.41;12180495;19;20405;-81
2022/04/07 05:59:31;;;;;;;2.05;0.90;;;;;;;9.28;100.00;97759.03;12201262;19;20015;-84
2022/04/07 06:03:33;;;;;;;2.13;0.95;;;;;;;9.25;100.00;97735.75;12205664;19;20086;-82
2022/04/07 06:07:35;;;;;;;1.83;1.10;;;;;;;9.29;100.00;97734.03;12181391;19;20007;-84
2022/04/07 06:11:37;;;;;;;3.63;0.80;;;;;;;9.39;100.00;97727.59;12203694;19;20477;-84
2022/04/07 06:15:39;;;;;;;1.73;0.95;;;;;;;9.41;100.00;97719.06;12180847;19;20010;-84
2022/04/07 06:19:42;;;;;;;1.15;0.75;;;;;;;9.45;100.00;97704.44;12179294;19;20030;-83
2022/04/07 06:23:44;;;;;;;3.53;1.10;;;;;;;9.53;100.00;97694.72;12207564;19;20014;-83
2022/04/07 06:27:49;;;;;;;1.60;1.33;;;;;;;9.58;100.00;97691.91;12188365;19;20716;-83
2022/04/07 06:31:50;;;;;;;0.88;0.65;;;;;;;9.62;100.00;97687.44;12204141;19;20036;-82
2022/04/07 06:35:55;;;;;;;2.83;1.00;;;;;;;9.69;98.64;97654.06;12202372;19;20510;-83
2022/04/07 06:40:01;;;;;;;4.28;0.90;;;;;;;9.77;97.37;97648.72;12184606;19;20014;-81
2022/04/07 06:44:03;;;;;;;2.30;0.90;;;;;;;9.83;96.82;97652.22;12202181;19;20020;-81
2022/04/07 06:48:05;;;;;;;1.63;0.85;;;;;;;9.78;96.79;97639.34;12204558;19;20022;-81
2022/04/07 06:52:07;;;;;;;4.00;1.17;;;;;;;9.83;96.71;97627.47;12184063;19;20018;-81
2022/04/07 06:56:10;;;;;;;1.95;0.98;;;;;;;9.83;96.36;97627.47;12200364;19;20003;-81
2022/04/07 07:00:12;;;;;;;3.40;1.00;;;;;;;9.83;97.16;97619.22;12211353;19;19999;-81
2022/04/07 07:04:15;;;;;;;1.90;0.88;;;;;;;9.65;99.92;97606.28;12213897;19;20103;-81
2022/04/07 07:08:24;;;;;;;1.38;0.90;;;;;;;9.53;100.00;97609.50;12224208;19;20102;-83
2022/04/07 07:12:26;;;;;;;2.72;1.13;;;;;;;9.54;100.00;97603.69;12228372;19;20014;-82
2022/04/07 07:16:28;;;;;;;5.07;2.13;;;;;;;9.56;100.00;97603.41;12199332;19;20007;-83
2022/04/07 07:20:35;;;;;;;1.58;0.68;;;;;;;9.71;100.00;97591.34;12219773;19;20007;-86
2022/04/07 07:24:39;;;;;;;3.03;1.00;;;;;;;9.85;99.96;97572.97;12219835;19;20015;-82
2022/04/07 07:28:41;;;;;;;2.45;0.85;;;;;;;9.84;98.81;97565.81;12191097;19;20018;-85
2022/04/07 07:32:45;;;;;;;2.60;1.00;;;;;;;9.92;98.56;97548.66;12222545;19;20468;-81
2022/04/07 07:36:47;;;;;;;2.45;0.80;;;;;;;9.83;98.35;97558.69;12215470;19;20006;-82
2022/04/07 07:40:48;;;;;;;1.92;1.10;;;;;;;9.87;98.29;97550.66;12204309;19;20014;-78
2022/04/07 07:44:51;;;;;;;5.60;0.70;;;;;;;9.78;98.68;97545.03;12220649;19;20406;-79
2022/04/07 07:48:52;;;;;;;1.75;0.90;;;;;;;9.72;99.48;97529.72;12189591;19;20480;-81
2022/04/07 07:52:54;;;;;;;1.83;0.77;;;;;;;9.67;99.54;97522.38;12221842;19;20003;-80
2022/04/07 07:56:56;;;;;;;1.55;0.93;;;;;;;9.69;100.00;97519.31;12211991;19;20026;-80
2022/04/07 08:01:24;;;;;;;3.42;0.93;;;;;;;9.75;100.00;97507.94;12215441;19;20010;-80
2022/04/07 08:05:55;;;;;;;0.98;0.60;;;;;;;9.77;100.00;97496.66;12209563;19;20018;-81
2022/04/07 08:10:17;;;;;;;2.42;1.02;;;;;;;9.72;100.00;97502.22;12206274;19;20031;-81
2022/04/07 08:15:39;;;;;;;2.08;0.70;;;;;;;9.65;100.00;97482.56;12208996;19;20015;-82
2022/04/07 08:25:11;;;;;;;1.83;0.90;;;;;;;9.76;100.00;97473.03;12190012;19;20019;-82
2022/04/07 08:29:12;;;;;;;2.58;1.00;;;;;;;9.73;100.00;97470.88;12207025;19;20006;-81
2022/04/07 08:33:14;;;;;;;2.38;0.90;;;;;;;9.62;100.00;97455.66;12216734;19;20810;-83
2022/04/07 08:37:20;;;;;;;2.20;1.00;;;;;;;9.73;100.00;97457.13;12189200;19;20013;-84
2022/04/07 08:41:23;;;;;;;2.92;1.00;;;;;;;9.75;100.00;97454.88;12221051;19;20027;-82
2022/04/07 08:45:28;;;;;;;1.70;0.90;;;;;;;9.84;100.00;97444.00;12218607;19;20014;-83
2022/04/07 08:49:32;;;;;;;3.00;0.90;;;;;;;9.92;100.00;97438.59;12198567;19;20014;-81
2022/04/07 08:53:36;;;;;;;2.72;0.80;;;;;;;10.07;100.00;97451.25;12235253;19;20153;-81
2022/04/07 08:57:40;;;;;;;4.03;0.80;;;;;;;10.04;100.00;97438.94;12241595;19;20017;-83
2022/04/07 09:01:42;;;;;;;;;;;;;;;10.01;100.00;97430.47;12203207;19;20014;-82
2022/04/07 09:05:53;;;;;;;1.33;0.70;;;;;;;10.08;100.00;97419.06;12216735;19;19923;-86
2022/04/07 09:09:59;;;;;;;1.58;0.60;;;;;;;10.24;100.00;97406.63;12203503;19;20025;-83
2022/04/07 09:14:01;;;;;;;1.50;0.80;;;;;;;10.24;100.00;97407.44;12245377;19;20011;-86
2022/04/07 09:18:05;;;;;;;1.88;0.60;;;;;;;10.33;100.00;97399.31;12249713;19;20007;-86
2022/04/07 09:22:09;;;;;;;1.67;0.65;;;;;;;10.41;100.00;97389.50;12224195;19;20009;-83
2022/04/07 09:26:13;;;;;;;1.27;0.75;;;;;;;10.46;100.00;97378.41;12243994;19;20018;-83
2022/04/07 09:30:20;;;;;;;2.13;1.05;;;;;;;10.43;99.60;97371.56;12244451;19;20046;-83
2022/04/07 09:34:30;;;;;;;3.58;1.10;;;;;;;10.58;98.91;97364.09;12217435;19;20042;-83
2022/04/07 09:38:41;;;;;;;0.52;0.50;;;;;;;10.70;97.63;97364.38;12244269;19;20010;-80
2022/04/07 09:42:45;;;;;;;1.27;0.73;;;;;;;10.82;96.50;97344.53;12246397;19;20010;-85
2022/04/07 09:46:50;;;;;;;1.38;0.55;;;;;;;10.88;95.48;97340.53;12224490;19;20011;-83
2022/04/07 09:51:04;;;;;;;2.85;0.70;;;;;;;11.01;94.82;97349.91;12239716;19;20011;-83
2022/04/07 09:55:08;;;;;;;1.42;0.60;;;;;;;11.05;94.63;97335.16;12200617;19;20049;-84
2022/04/07 09:59:11;;;;;;;2.35;1.00;;;;;;;11.21;93.55;97315.47;12223648;19;20620;-83
2022/04/07 10:03:16;;;;;;;3.05;0.98;;;;;;;11.25;92.63;97317.31;12232445;19;20014;-82
2022/04/07 10:07:26;;;;;;;2.47;1.02;;;;;;;11.27;91.92;97315.03;12214293;19;20006;-85
2022/04/07 10:11:31;;;;;;;0.63;0.50;;;;;;;11.15;93.21;97295.50;12235393;19;20078;-84
2022/04/07 10:15:35;;;;;;;4.40;2.03;;;;;;;11.10;96.32;97284.63;12225669;19;20789;-85
2022/04/07 10:20:05;;;;;;;1.45;0.65;;;;;;;10.92;98.51;97290.00;12197673;19;20439;-86
2022/04/07 10:24:31;;;;;;;5.15;0.82;;;;;;;10.87;100.00;97275.56;12220482;19;20487;-80
2022/04/07 10:28:57;;;;;;;1.95;0.98;;;;;;;10.89;100.00;97251.25;12188974;19;20015;-81
2022/04/07 10:33:00;;;;;;;0.93;0.40;;;;;;;11.25;99.12;97251.16;12218195;19;20017;-86
2022/04/07 10:37:08;;;;;;;3.22;0.80;;;;;;;11.48;97.95;97249.16;12211990;19;20615;-84
2022/04/07 10:41:37;;;;;;;3.97;0.70;;;;;;;11.57;97.04;97218.81;12230117;19;20003;-84
2022/04/07 10:45:48;;;;;;;1.50;0.50;;;;;;;11.53;96.71;97217.84;12231261;19;20006;-83
2022/04/07 10:49:51;;;;;;;0.82;0.68;;;;;;;11.50;96.85;97211.00;12204607;19;20027;-80
2022/04/07 10:53:52;;;;;;;0.90;0.40;;;;;;;11.51;95.97;97201.63;12220954;19;20022;-85
2022/04/07 10:58:11;;;;;;;2.28;0.50;;;;;;;11.60;95.38;97194.19;12202385;19;20010;-79
2022/04/07 11:02:15;;;;;;;0.55;0.50;;;;;;;11.67;95.74;97170.84;12215413;19;20078;-85
2022/04/07 11:06:22;;;;;;;0.50;0.38;;;;;;;11.54;94.75;97178.09;12224927;19;20356;-81
2022/04/07 11:10:48;;;;;;;0.20;0.20;;;;;;;11.53;95.14;97160.72;12198697;19;20006;-83
2022/04/07 11:15:11;;;;;;;0.90;0.38;;;;;;;11.58;94.80;97173.56;12225907;19;20357;-79
2022/04/07 11:19:21;;;;;;;0.85;0.50;;;;;;;11.63;94.42;97132.88;12201668;19;20022;-82
2022/04/07 11:23:43;;;;;;;0.32;0.32;;;;;;;11.75;93.73;97148.78;12225505;19;20125;-84
2022/04/07 11:28:06;;;;;;;0.60;0.40;;;;;;;11.94;91.64;97107.09;12219214;19;20007;-80
2022/04/07 11:32:09;;;;;;;0.57;0.30;;;;;;;12.05;91.51;97115.88;12188904;19;20007;-77
2022/04/07 11:36:11;;;;;;;;;;;;;;;11.95;92.42;97122.53;12238749;19;20027;-80
2022/04/07 11:40:13;;;;;;;1.77;0.50;;;;;;;11.93;92.48;97119.28;12152217;19;19915;-82
2022/04/07 11:44:17;;;;;;;1.67;0.70;;;;;;;11.86;93.57;97118.94;12226066;19;20022;-85
2022/04/07 11:48:20;;;;;;;1.00;0.52;;;;;;;11.77;94.09;97080.28;12226150;19;20027;-81
2022/04/07 11:52:28;;;;;;;1.02;0.40;;;;;;;11.62;95.38;97081.56;12194170;19;20015;-84
2022/04/07 11:56:38;;;;;;;0.43;0.40;;;;;;;11.62;96.10;97078.00;12209201;19;20264;-81
2022/04/07 12:00:40;;;;;;;0.90;0.60;;;;;;;11.64;96.34;97073.00;12192397;19;20023;-84
2022/04/07 12:04:42;;;;;;;0.43;0.43;;;;;;;11.66;96.19;97089.19;12209708;19;19998;-85
2022/04/07 12:08:44;;;;;;;0.85;0.35;;;;;;;11.63;96.63;97074.13;12217508;19;20487;-82
2022/04/07 12:12:46;;;;;;;1.10;0.50;;;;;;;11.69;96.21;97067.31;12196762;19;20043;-81
2022/04/07 12:16:48;;;;;;;1.43;0.67;;;;;;;11.73;96.35;97057.25;12212973;19;20006;-82
2022/04/07 12:21:00;;;;;;;1.20;0.60;;;;;;;11.78;96.01;97057.09;12214033;19;20239;-83
2022/04/07 12:25:07;;;;;;;1.95;0.50;;;;;;;11.85;95.56;97035.38;12188671;19;20480;-83
2022/04/07 12:29:16;;;;;;;0.77;0.40;;;;;;;11.89;95.29;97031.97;12210908;19;20388;-82
2022/04/07 12:33:44;;;;;;;1.85;0.47;;;;;;;12.00;95.07;97053.38;12212571;19;20034;-81
2022/04/07 12:37:46;;;;;;;1.08;0.60;;;;;;;12.13;94.21;97043.28;12184072;19;20011;-83
2022/04/07 12:41:54;;;;;;;2.10;0.50;;;;;;;12.36;93.07;97034.78;12208280;19;20010;-80
2022/04/07 12:45:58;;;;;;;2.20;0.40;;;;;;;12.63;89.18;97020.56;12189382;19;20002;-79
2022/04/07 12:50:02;;;;;;;0.93;0.20;;;;;;;13.12;85.16;97047.81;12208521;19;20760;-79
2022/04/07 12:54:14;;;;;;;1.02;0.43;;;;;;;13.31;83.74;97042.69;12196347;19;20011;-82
2022/04/07 12:58:15;;;;;;;4.93;0.40;;;;;;;13.65;81.50;97046.34;12182142;19;20476;-79
2022/04/07 13:02:19;;;;;;;1.52;0.35;;;;;;;13.78;81.34;97061.06;12202295;19;20006;-79
2022/04/07 13:06:26;;;;;;;3.40;0.30;;;;;;;13.97;80.16;97047.53;12184241;19;20011;-82
2022/04/07 13:10:29;;;;;;;0.67;0.30;;;;;;;13.94;81.25;97062.06;12201148;19;20022;-82
2022/04/07 13:14:32;;;;;;;2.22;0.30;;;;;;;13.86;83.23;97062.94;12205297;19;20029;-78
2022/04/07 13:18:34;;;;;;;;;;;;;;;13.71;84.90;97069.09;12181387;19;20011;-77
2022/04/07 13:22:36;;;;;;;0.40;0.22;;;;;;;13.35;87.99;97073.22;12213187;19;20260;-79
2022/04/07 13:26:39;;;;;;;0.43;0.30;;;;;;;13.09;90.30;97076.94;12211373;19;20014;-82
2022/04/07 13:30:43;;;;;;;6.18;0.30;;;;;;;12.88;92.78;97092.63;12180774;19;20019;-80
2022/04/07 13:34:45;;;;;;;0.60;0.40;;;;;;;12.53;97.33;97110.13;12194083;19;20053;-79
2022/04/07 13:38:48;;;;;;;;;;;;;;;12.47;98.21;97094.06;12209897;19;20459;-81
2022/04/07 13:42:50;;;;;;;1.42;0.30;;;;;;;12.36;100.00;97101.06;12192473;19;19915;-82
2022/04/07 13:46:51;;;;;;;1.38;0.40;;;;;;;12.38;98.71;97118.13;12207914;19;20211;-81
2022/04/07 13:50:53;;;;;;;1.35;0.40;;;;;;;12.57;95.05;97098.41;12207198;19;20014;-85
2022/04/07 13:54:55;;;;;;;0.47;0.30;;;;;;;12.68;94.20;97135.63;12180726;19;20317;-78
2022/04/07 13:58:57;;;;;;;0.77;0.32;;;;;;;12.97;92.00;97132.13;12200410;19;20006;-79
2022/04/07 14:02:59;;;;;;;2.25;0.45;;;;;;;13.14;91.63;97128.44;12197858;19;20019;-83
2022/04/07 14:07:01;;;;;;;1.20;0.50;;;;;;;13.09;92.48;97128.66;12179087;19;20422;-80
2022/04/07 14:11:04;;;;;;;1.33;0.40;;;;;;;12.84;95.14;97130.34;12219924;19;20029;-82
2022/04/07 14:15:07;;;;;;;0.90;0.35;;;;;;;12.65;97.75;97120.50;12220486;19;20367;-86
2022/04/07 14:19:12;;;;;;;6.45;0.70;;;;;;;12.47;100.00;97118.94;12198341;19;21558;-85
2022/04/07 14:23:15;;;;;;;74.50;5.13;;;;;;;12.05;100.00;97124.97;12207437;19;20034;-81
2022/04/07 14:27:19;;;;;;;20.67;2.03;;;;;;;11.60;100.00;97132.69;12201501;19;20007;-79
2022/04/07 14:31:24;;;;;;;1.42;0.70;;;;;;;11.39;100.00;97122.28;12179408;19;20515;-83
2022/04/07 14:35:32;;;;;;;2.53;0.90;;;;;;;11.30;100.00;97117.84;12200124;19;20014;-81
2022/04/07 14:39:34;;;;;;;2.80;1.02;;;;;;;11.32;100.00;97110.09;12188302;19;20018;-83
2022/04/07 14:43:37;;;;;;;4.07;1.17;;;;;;;11.27;100.00;97124.00;12200131;19;20006;-81
2022/04/07 14:47:39;;;;;;;5.10;1.40;;;;;;;11.24;100.00;97116.38;12208692;19;20132;-82
2022/04/07 14:51:40;;;;;;;2.58;1.65;;;;;;;11.44;100.00;97140.59;12174912;19;20010;-81
2022/04/07 14:55:42;;;;;;;1.75;0.63;;;;;;;11.82;100.00;97140.03;12202304;19;20019;-83
2022/04/07 14:59:44;;;;;;;1.13;0.70;;;;;;;11.93;100.00;97152.41;12198504;19;20047;-82
2022/04/07 15:03:46;;;;;;;1.77;0.60;;;;;;;11.91;100.00;97151.09;12182788;19;20004;-83
2022/04/07 15:07:47;;;;;;;3.40;1.20;;;;;;;12.02;100.00;97172.53;12211783;19;20006;-81
2022/04/07 15:11:54;;;;;;;3.17;0.93;;;;;;;12.21;100.00;97180.50;12209758;19;20011;-82
2022/04/07 15:15:56;;;;;;;2.05;0.70;;;;;;;11.99;100.00;97184.22;12173715;19;20027;-83
2022/04/07 15:19:58;;;;;;;5.07;1.08;;;;;;;11.94;100.00;97173.34;12216007;19;20010;-82
2022/04/07 15:24:00;;;;;;;2.25;0.63;;;;;;;11.91;100.00;97165.72;12216533;19;20021;-80
2022/04/07 15:28:02;;;;;;;2.45;0.57;;;;;;;11.98;100.00;97185.34;12199561;19;20387;-81
2022/04/07 15:32:04;;;;;;;2.47;0.80;;;;;;;11.75;97.21;97170.84;12214054;19;20492;-83
2022/04/07 15:36:06;;;;;;;1.63;0.57;;;;;;;11.76;99.22;97180.75;12203578;19;20010;-84
2022/04/07 15:40:09;;;;;;;2.90;0.90;;;;;;;11.94;96.08;97189.09;12192833;19;20010;-84
2022/04/07 15:44:10;;;;;;;1.52;0.40;;;;;;;12.15;91.06;97214.91;12214019;19;20022;-82
2022/04/07 15:48:12;;;;;;;1.67;0.70;;;;;;;12.13;83.04;97225.47;12214151;19;20003;-81
2022/04/07 15:52:17;;;;;;;8.85;1.40;;;;;;;12.38;77.65;97225.81;12186071;19;20030;-80
2022/04/07 15:56:20;;;;;;;1.27;0.70;;;;;;;12.23;75.75;97236.22;12208133;19;20357;-80
2022/04/07 16:00:22;;;;;;;2.13;0.40;;;;;;;12.12;65.35;97258.94;12208779;19;20346;-83
2022/04/07 16:04:28;;;;;;;3.97;1.02;;;;;;;12.29;64.61;97250.69;12192684;19;20017;-82
2022/04/07 16:08:31;;;;;;;1.75;0.60;;;;;;;12.61;61.83;97248.56;12212242;19;20098;-83
2022/04/07 16:12:33;;;;;;;5.10;0.90;;;;;;;12.95;65.62;97250.47;12182348;19;20017;-80
2022/04/07 16:16:38;;;;;;;4.25;0.85;;;;;;;13.29;59.04;97257.91;12211459;19;20266;-83
2022/04/07 16:20:40;;;;;;;4.18;0.70;;;;;;;13.25;62.22;97268.00;12200893;19;20007;-83
2022/04/07 16:24:42;;;;;;;4.78;0.77;;;;;;;13.52;59.44;97272.31;12180910;19;20007;-84
2022/04/07 16:28:44;;;;;;;5.57;0.88;;;;;;;14.61;53.19;97284.63;12210055;19;20345;-78
2022/04/07 16:32:46;;;;;;;5.57;1.00;;;;;;;15.00;53.85;97279.72;12210687;19;20002;-79
2022/04/07 16:36:49;;;;;;;2.88;1.10;;;;;;;15.21;49.64;97296.31;12174405;19;20015;-81
2022/04/07 16:40:51;;;;;;;3.58;0.80;;;;;;;14.73;48.03;97312.41;12212296;19;20373;-80
2022/04/07 16:44:53;;;;;;;3.03;1.00;;;;;;;14.53;48.10;97310.44;12213857;19;20419;-78
2022/04/07 16:48:55;;;;;;;3.22;0.70;;;;;;;14.46;43.37;97333.09;12174829;19;20015;-78
2022/04/07 16:52:56;;;;;;;6.03;1.10;;;;;;;13.76;44.02;97337.34;12210292;19;20070;-76
2022/04/07 16:56:58;;;;;;;5.38;1.05;;;;;;;13.37;45.45;97333.72;12205062;19;20010;-79
2022/04/07 17:01:00;;;;;;;3.30;0.98;;;;;;;13.29;45.60;97334.53;12183879;19;20027;-83
2022/04/07 17:05:06;;;;;;;3.37;0.90;;;;;;;13.20;46.85;97324.25;12204252;19;20010;-81
2022/04/07 17:09:10;;;;;;;3.67;0.68;;;;;;;12.78;44.92;97329.50;12208724;19;20023;-79
2022/04/07 17:13:16;;;;;;;3.38;0.70;;;;;;;12.69;44.29;97342.50;12183495;19;20014;-79
2022/04/07 17:17:18;;;;;;;3.58;0.70;;;;;;;12.60;42.42;97357.44;12203689;19;20022;-80
2022/04/07 17:21:21;;;;;;;1.40;0.80;;;;;;;12.47;43.04;97359.22;12192862;19;20003;-78
2022/04/07 17:25:24;;;;;;;4.03;0.73;;;;;;;12.38;41.18;97355.63;12170371;19;20034;-78
2022/04/07 17:29:29;;;;;;;5.55;0.93;;;;;;;12.20;44.51;97355.56;12202178;19;20022;-80
2022/04/07 17:33:33;;;;;;;5.82;0.95;;;;;;;12.12;44.64;97361.88;12185268;19;20023;-79
2022/04/07 17:37:36;;;;;;;5.78;1.13;;;;;;;12.05;46.26;97364.28;12202065;19;20011;-82
2022/04/07 17:41:38;;;;;;;2.42;0.60;;;;;;;12.09;44.48;97388.16;12207731;19;20038;-85
2022/04/07 17:45:41;;;;;;;2.47;0.93;;;;;;;12.04;43.28;97398.53;12187072;19;20665;-79
2022/04/07 17:49:42;;;;;;;3.10;0.60;;;;;;;11.93;43.64;97422.00;12202362;19;20458;-80
2022/04/07 17:53:44;;;;;;;3.30;0.80;;;;;;;12.08;45.08;97416.91;12205026;19;20350;-83
2022/04/07 17:57:46;;;;;;;4.47;0.90;;;;;;;11.91;45.40;97424.28;12184027;19;20011;-82
2022/04/07 18:01:48;;;;;;;2.38;0.40;;;;;;;11.66;44.52;97445.03;12197778;19;20023;-81
2022/04/07 18:05:51;;;;;;;3.70;0.98;;;;;;;11.44;45.99;97443.09;12200181;19;20002;-83
2022/04/07 18:09:53;;;;;;;6.17;1.43;;;;;;;11.39;45.77;97457.81;12178907;19;20010;-83
2022/04/07 18:13:56;;;;;;;7.20;0.60;;;;;;;11.21;46.50;97465.13;12199955;19;20374;-85
2022/04/07 18:17:58;;;;;;;4.90;2.55;;;;;;;11.01;47.66;97462.88;12199866;19;20674;-80
2022/04/07 18:22:01;;;;;;;3.50;0.73;;;;;;;10.92;47.40;97469.09;12180260;19;20277;-80
2022/04/07 18:26:03;;;;;;;5.00;1.00;;;;;;;10.81;46.90;97475.97;12204504;19;20026;-83
2022/04/07 18:30:05;;;;;;;3.35;0.73;;;;;;;10.84;46.06;97497.38;12196351;19;20010;-80
2022/04/07 18:34:07;;;;;;;5.00;1.27;;;;;;;10.73;46.46;97520.75;12171521;19;20472;-80
2022/04/07 18:38:09;;;;;;;2.45;0.85;;;;;;;10.80;45.93;97523.94;12193889;19;20031;-80
2022/04/07 18:42:10;;;;;;;6.20;1.05;;;;;;;10.73;47.17;97534.53;12204643;19;20003;-81
2022/04/07 18:46:13;;;;;;;4.10;0.50;;;;;;;10.58;47.85;97556.84;12184914;19;20578;-82
2022/04/07 18:50:15;;;;;;;5.65;0.90;;;;;;;10.54;47.17;97577.88;12200586;19;20054;-80
2022/04/07 18:54:19;;;;;;;;;;;;;;;10.48;45.31;97588.97;12200882;19;20366;-82
2022/04/07 18:58:21;;;;;;;5.50;0.85;;;;;;;10.51;45.36;97578.50;12201167;19;19910;-80
2022/04/07 19:02:28;;;;;;;3.13;1.38;;;;;;;10.39;48.02;97595.50;12215666;19;20007;-78
2022/04/07 19:06:30;;;;;;;4.85;1.00;;;;;;;10.24;48.72;97604.81;12190635;19;20022;-78
2022/04/07 19:10:33;;;;;;;6.30;0.77;;;;;;;10.07;49.80;97605.34;12209117;19;20011;-78